createdAt,value
2023-01-19T00:02:39.914Z,948.9598662207358
2023-01-19T00:14:24.430Z,958.6220735785953
2023-01-19T00:22:06.481Z,973.8795986622074
2023-01-19T00:30:13.777Z,957.9698996655518
2023-01-19T00:37:51.117Z,941.1003344481605
2023-01-19T01:06:55.240Z,980.9063545150501
2023-01-19T01:13:52.072Z,979.2909698996656
2023-01-19T01:33:40.593Z,1036.1505016722408
2023-01-19T01:46:31.266Z,1069.6321070234114
2023-01-19T01:53:35.048Z,1048.1839464882944
2023-01-19T02:00:38.830Z,1081.6688963210702
2023-01-19T02:07:39.292Z,1065.0501672240803
2023-01-19T02:14:42.241Z,1054.2709030100334
2023-01-19T02:22:10.442Z,1068.1270903010034
2023-01-19T02:36:40.290Z,1070.4448160535117
2023-01-19T02:56:27.183Z,1067.190635451505
2023-01-19T03:04:32.597Z,1050.4046822742475
2023-01-19T03:19:32.156Z,1065.2976588628762
2023-01-19T03:28:31.872Z,1070.6488294314381
2023-01-19T03:41:05.073Z,1081.6923076923076
2023-01-19T03:49:31.672Z,1066.3578595317726
2023-01-19T04:03:22.248Z,992.819397993311
2023-01-19T04:11:35.420Z,1011.1872909698997
2023-01-19T04:23:58.666Z,972.7023411371238
2023-01-19T04:32:01.257Z,973.7558528428094
2023-01-19T04:47:17.456Z,963.9565217391304
2023-01-19T04:56:12.833Z,981.0
2023-01-19T05:03:48.439Z,993.1170568561873
2023-01-19T05:24:20.213Z,1020.3344481605351
2023-01-19T05:31:22.247Z,1048.4548494983278
2023-01-19T05:39:00.200Z,1033.7558528428094
2023-01-19T05:46:22.739Z,1079.1170568561872
2023-01-19T05:55:30.724Z,1094.4180602006688
2023-01-19T06:04:58.422Z,1081.076923076923
2023-01-19T06:11:51.145Z,1069.0334448160536
2023-01-19T06:18:33.109Z,1064.190635451505
2023-01-19T06:25:15.519Z,1042.4347826086957
2023-01-19T06:36:42.544Z,1019.9163879598663
2023-01-19T06:43:21.233Z,990.3511705685619
2023-01-19T06:50:00.836Z,1001.1705685618729
2023-01-19T06:56:56.492Z,989.7792642140469
2023-01-19T07:03:50.975Z,955.0635451505017
2023-01-19T07:28:50.857Z,982.2943143812709
2023-01-19T07:49:19.622Z,944.685618729097
2023-01-19T07:59:03.616Z,955.3411371237459
2023-01-19T08:07:14.115Z,925.6153846153846
2023-01-19T08:14:54.727Z,950.0602006688963
2023-01-19T08:27:15.375Z,946.1304347826087
2023-01-19T08:34:20.808Z,933.3545150501673
2023-01-19T08:48:57.917Z,940.2274247491639
2023-01-19T08:55:35.429Z,935.9464882943143
2023-01-19T09:02:26.768Z,926.2006688963211
2023-01-19T09:09:22.945Z,909.7725752508361
2023-01-19T09:16:02.772Z,897.3076923076923
2023-01-19T09:22:43.354Z,877.3311036789298
2023-01-19T09:34:55.304Z,877.5217391304348
2023-01-19T09:44:06.770Z,806.5317725752508
2023-01-19T09:55:18.091Z,763.9297658862877
2023-01-19T10:01:59.719Z,762.8729096989966
2023-01-19T10:12:54.253Z,767.7759197324415
2023-01-19T10:19:32.752Z,791.8896321070234
2023-01-19T10:30:25.072Z,764.3444816053511
2023-01-19T10:36:59.276Z,761.4448160535117
2023-01-19T10:50:05.312Z,816.5150501672241
2023-01-19T11:02:27.998Z,903.0267558528428
2023-01-19T11:09:42.070Z,867.1638795986622
2023-01-19T11:26:07.908Z,725.2274247491639
2023-01-19T11:33:18.666Z,700.3311036789298
2023-01-19T11:39:55.851Z,583.581939799331
2023-01-19T11:51:39.447Z,424.66220735785953
2023-01-19T12:00:57.801Z,364.75919732441474
2023-01-19T12:12:29.855Z,272.10702341137124
2023-01-19T12:19:13.451Z,210.51505016722408
2023-01-19T12:25:49.860Z,163.96321070234114
2023-01-19T12:37:20.675Z,125.25418060200668
2023-01-19T12:44:26.276Z,124.24414715719064
2023-01-19T12:51:19.475Z,137.37123745819397
2023-01-19T12:58:10.497Z,100.58528428093645
2023-01-19T13:04:57.979Z,102.80267558528428
2023-01-19T13:11:38.009Z,90.76923076923077
2023-01-19T13:25:04.163Z,77.9866220735786
2023-01-19T13:32:47.819Z,67.04347826086956
2023-01-19T13:44:00.010Z,60.27759197324415
2023-01-19T13:56:17.231Z,62.558528428093645
2023-01-19T14:02:54.358Z,56.5819397993311
2023-01-19T14:12:04.869Z,40.01672240802676
2023-01-19T14:18:39.002Z,44.20066889632107
2023-01-19T14:31:14.533Z,57.68896321070234
2023-01-19T14:37:52.570Z,54.95986622073578
2023-01-19T14:56:13.380Z,76.9933110367893
2023-01-19T15:02:45.430Z,64.68561872909699
2023-01-19T15:09:17.069Z,68.43812709030101
2023-01-19T15:38:56.126Z,47.16722408026756
2023-01-19T15:45:22.334Z,68.27090301003345
2023-01-19T15:51:50.251Z,33.03010033444816
2023-01-19T15:58:17.309Z,34.84280936454849
2023-01-19T16:06:52.091Z,53.61538461538461
2023-01-19T16:18:21.713Z,78.31103678929766
2023-01-19T16:27:15.952Z,89.55183946488295
2023-01-19T16:33:44.860Z,93.04682274247492
2023-01-19T16:41:19.652Z,104.08695652173913
2023-01-19T16:47:52.218Z,112.01672240802675
2023-01-19T16:59:36.157Z,127.90635451505017
2023-01-19T17:06:06.384Z,141.11371237458195
2023-01-19T17:12:34.350Z,188.36120401337791
2023-01-19T17:22:07.894Z,249.26421404682273
2023-01-19T17:28:38.679Z,242.77926421404683
2023-01-19T17:35:12.191Z,224.5953177257525
2023-01-19T17:41:45.733Z,315.41471571906357
2023-01-19T17:48:19.265Z,282.25083612040135
2023-01-19T17:54:55.431Z,310.2274247491639
2023-01-19T18:04:33.914Z,843.5150501672241
2023-01-19T18:15:17.003Z,330.8829431438127
2023-01-19T18:21:46.270Z,263.6354515050167
2023-01-19T18:28:13.723Z,243.09364548494983
2023-01-19T18:34:45.981Z,242.48160535117057
2023-01-19T18:41:19.169Z,231.9665551839465
2023-01-19T18:50:59.116Z,242.04347826086956
2023-01-19T18:57:40.737Z,259.1973244147157
2023-01-19T19:04:38.427Z,255.34448160535118
2023-01-19T19:11:36.491Z,269.05016722408027
2023-01-19T19:18:23.062Z,240.76254180602007
2023-01-19T19:25:02.143Z,228.37792642140468
2023-01-19T19:35:11.839Z,193.1371237458194
2023-01-19T19:42:00.378Z,235.8561872909699
2023-01-19T19:48:44.871Z,273.8026755852843
2023-01-19T19:56:22.328Z,263.81605351170566
2023-01-19T20:05:03.974Z,276.7658862876254
2023-01-19T20:20:03.671Z,249.02341137123747
2023-01-19T20:26:53.062Z,318.933110367893
2023-01-19T20:37:01.375Z,353.04347826086956
2023-01-19T20:53:42.163Z,362.5551839464883
2023-01-19T21:00:20.103Z,272.933110367893
2023-01-19T21:06:55.411Z,251.61872909698997
2023-01-19T21:13:29.949Z,252.0133779264214
2023-01-19T21:20:20.395Z,223.8494983277592
2023-01-19T21:26:59.001Z,229.14046822742475
2023-01-19T21:33:39.824Z,212.15384615384616
2023-01-19T21:40:14.603Z,226.3979933110368
2023-01-19T21:46:50.426Z,228.80267558528428
2023-01-19T21:53:35.137Z,234.5685618729097
2023-01-19T22:00:29.305Z,253.7826086956522
2023-01-19T22:07:12.925Z,278.83277591973246
2023-01-19T22:14:13.556Z,274.8361204013378
2023-01-19T22:31:59.125Z,405.82608695652175
2023-01-19T22:40:51.904Z,581.685618729097
2023-01-19T22:48:08.705Z,733.6421404682275
2023-01-19T22:55:27.026Z,838.2408026755853
2023-01-19T23:02:52.106Z,962.2976588628762
2023-01-19T23:14:56.899Z,1036.361204013378
2023-01-19T23:28:18.734Z,1132.505016722408
2023-01-19T23:43:11.144Z,1232.8127090301002
2023-01-19T23:50:05.027Z,1297.9765886287626
2023-01-19T23:56:58.354Z,1323.494983277592
